<?xml version="1.0" encoding="UTF-8" standalone="no" ?>
<gpx xmlns="http://www.topografix.com/GPX/1/1" xmlns:xsi="http://www.w3.org/2001/XMLSchema-instance" xsi:schemaLocation="http://www.topografix.com/GPX/1/1 http://www.topografix.com/GPX/1/1/gpx.xsd" version="1.1" creator="VisuGPX - https://www.visugpx.com">
  <metadata>
    <name>Circuit de l'oiseau en forêt de Bouconne</name>
  </metadata>
  <wpt lat="43.59846" lon="1.18653">
    <ele>241</ele>
    <name><![CDATA[Parking de la maison forestière Saint-Louis]]></name>
  </wpt>
  <wpt lat="43.60117" lon="1.18174">
    <ele>238</ele>
    <name><![CDATA[Allée n°38]]></name>
  </wpt>
  <wpt lat="43.60607" lon="1.18554">
    <ele>250</ele>
    <name><![CDATA[Chemin des Chasseurs]]></name>
  </wpt>
  <wpt lat="43.61388" lon="1.18636">
    <ele>242</ele>
    <name><![CDATA[Vers la parking Mérenvielle]]></name>
  </wpt>
  <wpt lat="43.60713" lon="1.19028">
    <ele>238</ele>
    <name><![CDATA[Sentier vers la voie centrale]]></name>
  </wpt>
  <wpt lat="43.61177" lon="1.19357">
    <ele>237</ele>
    <name><![CDATA[Sentier vers le parking]]></name>
  </wpt>
  <wpt lat="43.61322" lon="1.19802">
    <ele>221</ele>
    <name><![CDATA[Voie centrale]]></name>
  </wpt>
  <wpt lat="43.61099" lon="1.19631">
    <ele>233</ele>
    <name><![CDATA[Vers le GR653]]></name>
  </wpt>
  <wpt lat="43.60936" lon="1.20006">
    <ele>234</ele>
    <name><![CDATA[GR653]]></name>
  </wpt>
  <wpt lat="43.59847" lon="1.18654">
    <ele>241</ele>
    <name><![CDATA[Parking de la maison forestière Saint-Louis]]></name>
  </wpt>
  <trk>
    <name><![CDATA[Circuit de l'oiseau en forêt de Bouconne]]></name>
    <trkseg>
      <trkpt lat="43.59846" lon="1.18653">
        <ele>241</ele>
        <time>2020-12-24T18:38:10+01:00</time>
      </trkpt>
      <trkpt lat="43.59885" lon="1.18682">
        <ele>241</ele>
        <time>2020-12-24T18:40:14+01:00</time>
      </trkpt>
      <trkpt lat="43.5989" lon="1.18679">
        <ele>242</ele>
        <time>2020-12-24T18:40:31+01:00</time>
      </trkpt>
      <trkpt lat="43.59894" lon="1.18678">
        <ele>242</ele>
        <time>2020-12-24T18:40:35+01:00</time>
      </trkpt>
      <trkpt lat="43.59901" lon="1.1867">
        <ele>242</ele>
        <time>2020-12-24T18:40:42+01:00</time>
      </trkpt>
      <trkpt lat="43.59909" lon="1.18665">
        <ele>242</ele>
        <time>2020-12-24T18:40:48+01:00</time>
      </trkpt>
      <trkpt lat="43.59918" lon="1.18638">
        <ele>243</ele>
        <time>2020-12-24T18:41:10+01:00</time>
      </trkpt>
      <trkpt lat="43.59928" lon="1.18615">
        <ele>244</ele>
        <time>2020-12-24T18:41:27+01:00</time>
      </trkpt>
      <trkpt lat="43.59936" lon="1.18594">
        <ele>245</ele>
        <time>2020-12-24T18:41:34+01:00</time>
      </trkpt>
      <trkpt lat="43.59942" lon="1.18581">
        <ele>245</ele>
        <time>2020-12-24T18:41:42+01:00</time>
      </trkpt>
      <trkpt lat="43.59946" lon="1.18568">
        <ele>245</ele>
        <time>2020-12-24T18:41:53+01:00</time>
      </trkpt>
      <trkpt lat="43.59954" lon="1.18551">
        <ele>246</ele>
        <time>2020-12-24T18:42:05+01:00</time>
      </trkpt>
      <trkpt lat="43.59965" lon="1.18534">
        <ele>246</ele>
        <time>2020-12-24T18:42:22+01:00</time>
      </trkpt>
      <trkpt lat="43.59971" lon="1.18523">
        <ele>247</ele>
        <time>2020-12-24T18:42:30+01:00</time>
      </trkpt>
      <trkpt lat="43.59974" lon="1.18511">
        <ele>247</ele>
        <time>2020-12-24T18:42:37+01:00</time>
      </trkpt>
      <trkpt lat="43.59978" lon="1.18503">
        <ele>247</ele>
        <time>2020-12-24T18:42:43+01:00</time>
      </trkpt>
      <trkpt lat="43.59981" lon="1.18494">
        <ele>247</ele>
        <time>2020-12-24T18:42:50+01:00</time>
      </trkpt>
      <trkpt lat="43.59987" lon="1.18483">
        <ele>247</ele>
        <time>2020-12-24T18:43:00+01:00</time>
      </trkpt>
      <trkpt lat="43.59992" lon="1.1847">
        <ele>247</ele>
        <time>2020-12-24T18:43:07+01:00</time>
      </trkpt>
      <trkpt lat="43.59998" lon="1.18455">
        <ele>246</ele>
        <time>2020-12-24T18:43:17+01:00</time>
      </trkpt>
      <trkpt lat="43.60003" lon="1.18444">
        <ele>246</ele>
        <time>2020-12-24T18:43:28+01:00</time>
      </trkpt>
      <trkpt lat="43.60006" lon="1.1843">
        <ele>246</ele>
        <time>2020-12-24T18:43:34+01:00</time>
      </trkpt>
      <trkpt lat="43.60011" lon="1.18419">
        <ele>245</ele>
        <time>2020-12-24T18:43:41+01:00</time>
      </trkpt>
      <trkpt lat="43.6002" lon="1.18403">
        <ele>245</ele>
        <time>2020-12-24T18:43:53+01:00</time>
      </trkpt>
      <trkpt lat="43.6003" lon="1.18381">
        <ele>244</ele>
        <time>2020-12-24T18:44:10+01:00</time>
      </trkpt>
      <trkpt lat="43.60037" lon="1.18362">
        <ele>243</ele>
        <time>2020-12-24T18:44:24+01:00</time>
      </trkpt>
      <trkpt lat="43.60047" lon="1.18337">
        <ele>242</ele>
        <time>2020-12-24T18:44:40+01:00</time>
      </trkpt>
      <trkpt lat="43.60054" lon="1.18319">
        <ele>242</ele>
        <time>2020-12-24T18:44:51+01:00</time>
      </trkpt>
      <trkpt lat="43.6006" lon="1.18306">
        <ele>241</ele>
        <time>2020-12-24T18:45:00+01:00</time>
      </trkpt>
      <trkpt lat="43.60068" lon="1.1829">
        <ele>241</ele>
        <time>2020-12-24T18:45:10+01:00</time>
      </trkpt>
      <trkpt lat="43.60075" lon="1.18273">
        <ele>240</ele>
        <time>2020-12-24T18:45:23+01:00</time>
      </trkpt>
      <trkpt lat="43.60088" lon="1.18242">
        <ele>239</ele>
        <time>2020-12-24T18:45:44+01:00</time>
      </trkpt>
      <trkpt lat="43.60093" lon="1.18234">
        <ele>239</ele>
        <time>2020-12-24T18:45:51+01:00</time>
      </trkpt>
      <trkpt lat="43.60097" lon="1.18217">
        <ele>239</ele>
        <time>2020-12-24T18:45:59+01:00</time>
      </trkpt>
      <trkpt lat="43.60106" lon="1.18197">
        <ele>238</ele>
        <time>2020-12-24T18:46:12+01:00</time>
      </trkpt>
      <trkpt lat="43.60117" lon="1.18174">
        <ele>238</ele>
        <time>2020-12-24T18:46:32+01:00</time>
      </trkpt>
      <trkpt lat="43.60131" lon="1.18182">
        <ele>239</ele>
        <time>2020-12-24T18:46:45+01:00</time>
      </trkpt>
      <trkpt lat="43.60143" lon="1.18191">
        <ele>240</ele>
        <time>2020-12-24T18:46:59+01:00</time>
      </trkpt>
      <trkpt lat="43.60156" lon="1.182">
        <ele>241</ele>
        <time>2020-12-24T18:47:16+01:00</time>
      </trkpt>
      <trkpt lat="43.60169" lon="1.18211">
        <ele>243</ele>
        <time>2020-12-24T18:47:28+01:00</time>
      </trkpt>
      <trkpt lat="43.60174" lon="1.18215">
        <ele>243</ele>
        <time>2020-12-24T18:47:30+01:00</time>
      </trkpt>
      <trkpt lat="43.60182" lon="1.18221">
        <ele>243</ele>
        <time>2020-12-24T18:47:43+01:00</time>
      </trkpt>
      <trkpt lat="43.60191" lon="1.18228">
        <ele>243</ele>
        <time>2020-12-24T18:47:48+01:00</time>
      </trkpt>
      <trkpt lat="43.60203" lon="1.1824">
        <ele>243</ele>
        <time>2020-12-24T18:48:03+01:00</time>
      </trkpt>
      <trkpt lat="43.60213" lon="1.18247">
        <ele>244</ele>
        <time>2020-12-24T18:48:09+01:00</time>
      </trkpt>
      <trkpt lat="43.60224" lon="1.18257">
        <ele>244</ele>
        <time>2020-12-24T18:48:21+01:00</time>
      </trkpt>
      <trkpt lat="43.60237" lon="1.18265">
        <ele>246</ele>
        <time>2020-12-24T18:48:32+01:00</time>
      </trkpt>
      <trkpt lat="43.60258" lon="1.18283">
        <ele>249</ele>
        <time>2020-12-24T18:48:54+01:00</time>
      </trkpt>
      <trkpt lat="43.6027" lon="1.18292">
        <ele>251</ele>
        <time>2020-12-24T18:49:06+01:00</time>
      </trkpt>
      <trkpt lat="43.60282" lon="1.18303">
        <ele>254</ele>
        <time>2020-12-24T18:49:16+01:00</time>
      </trkpt>
      <trkpt lat="43.60307" lon="1.18323">
        <ele>257</ele>
        <time>2020-12-24T18:49:41+01:00</time>
      </trkpt>
      <trkpt lat="43.60315" lon="1.18328">
        <ele>257</ele>
        <time>2020-12-24T18:49:49+01:00</time>
      </trkpt>
      <trkpt lat="43.60322" lon="1.18337">
        <ele>258</ele>
        <time>2020-12-24T18:49:57+01:00</time>
      </trkpt>
      <trkpt lat="43.60331" lon="1.18342">
        <ele>259</ele>
        <time>2020-12-24T18:50:03+01:00</time>
      </trkpt>
      <trkpt lat="43.6034" lon="1.18351">
        <ele>260</ele>
        <time>2020-12-24T18:50:11+01:00</time>
      </trkpt>
      <trkpt lat="43.60347" lon="1.18356">
        <ele>261</ele>
        <time>2020-12-24T18:50:16+01:00</time>
      </trkpt>
      <trkpt lat="43.60358" lon="1.18363">
        <ele>263</ele>
        <time>2020-12-24T18:50:26+01:00</time>
      </trkpt>
      <trkpt lat="43.60383" lon="1.18384">
        <ele>265</ele>
        <time>2020-12-24T18:50:54+01:00</time>
      </trkpt>
      <trkpt lat="43.60393" lon="1.18393">
        <ele>265</ele>
        <time>2020-12-24T18:51:05+01:00</time>
      </trkpt>
      <trkpt lat="43.60403" lon="1.18402">
        <ele>265</ele>
        <time>2020-12-24T18:51:13+01:00</time>
      </trkpt>
      <trkpt lat="43.60416" lon="1.18409">
        <ele>265</ele>
        <time>2020-12-24T18:51:30+01:00</time>
      </trkpt>
      <trkpt lat="43.60428" lon="1.1842">
        <ele>264</ele>
        <time>2020-12-24T18:51:35+01:00</time>
      </trkpt>
      <trkpt lat="43.60444" lon="1.18433">
        <ele>264</ele>
        <time>2020-12-24T18:51:45+01:00</time>
      </trkpt>
      <trkpt lat="43.60462" lon="1.18445">
        <ele>264</ele>
        <time>2020-12-24T18:51:51+01:00</time>
      </trkpt>
      <trkpt lat="43.60466" lon="1.18437">
        <ele>265</ele>
        <time>2020-12-24T18:52:04+01:00</time>
      </trkpt>
      <trkpt lat="43.60469" lon="1.18433">
        <ele>265</ele>
        <time>2021-01-18T17:53:40+01:00</time>
      </trkpt>
      <trkpt lat="43.60473" lon="1.18425">
        <ele>265</ele>
        <time>2020-12-24T18:52:17+01:00</time>
      </trkpt>
      <trkpt lat="43.60479" lon="1.18414">
        <ele>266</ele>
        <time>2020-12-24T18:52:27+01:00</time>
      </trkpt>
      <trkpt lat="43.60484" lon="1.18395">
        <ele>266</ele>
        <time>2020-12-24T18:52:40+01:00</time>
      </trkpt>
      <trkpt lat="43.6049" lon="1.18381">
        <ele>267</ele>
        <time>2020-12-24T18:52:48+01:00</time>
      </trkpt>
      <trkpt lat="43.60497" lon="1.18368">
        <ele>268</ele>
        <time>2020-12-24T18:52:57+01:00</time>
      </trkpt>
      <trkpt lat="43.60506" lon="1.18348">
        <ele>269</ele>
        <time>2020-12-24T18:53:11+01:00</time>
      </trkpt>
      <trkpt lat="43.60513" lon="1.18331">
        <ele>269</ele>
        <time>2020-12-24T18:53:24+01:00</time>
      </trkpt>
      <trkpt lat="43.60526" lon="1.18301">
        <ele>270</ele>
        <time>2020-12-24T18:53:44+01:00</time>
      </trkpt>
      <trkpt lat="43.60533" lon="1.18282">
        <ele>271</ele>
        <time>2020-12-24T18:53:55+01:00</time>
      </trkpt>
      <trkpt lat="43.60544" lon="1.1826">
        <ele>271</ele>
        <time>2020-12-24T18:54:24+01:00</time>
      </trkpt>
      <trkpt lat="43.60549" lon="1.18244">
        <ele>271</ele>
        <time>2020-12-24T18:54:36+01:00</time>
      </trkpt>
      <trkpt lat="43.60559" lon="1.18224">
        <ele>271</ele>
        <time>2020-12-24T18:54:51+01:00</time>
      </trkpt>
      <trkpt lat="43.60564" lon="1.18212">
        <ele>271</ele>
        <time>2020-12-24T18:55:02+01:00</time>
      </trkpt>
      <trkpt lat="43.60569" lon="1.182">
        <ele>271</ele>
        <time>2020-12-24T18:55:07+01:00</time>
      </trkpt>
      <trkpt lat="43.60575" lon="1.18189">
        <ele>271</ele>
        <time>2020-12-24T18:55:10+01:00</time>
      </trkpt>
      <trkpt lat="43.60584" lon="1.18168">
        <ele>271</ele>
        <time>2020-12-24T18:55:28+01:00</time>
      </trkpt>
      <trkpt lat="43.60589" lon="1.18154">
        <ele>271</ele>
        <time>2020-12-24T18:55:36+01:00</time>
      </trkpt>
      <trkpt lat="43.60595" lon="1.18142">
        <ele>271</ele>
        <time>2020-12-24T18:55:46+01:00</time>
      </trkpt>
      <trkpt lat="43.60598" lon="1.1813">
        <ele>271</ele>
        <time>2020-12-24T18:55:49+01:00</time>
      </trkpt>
      <trkpt lat="43.60604" lon="1.18117">
        <ele>271</ele>
        <time>2020-12-24T18:56:03+01:00</time>
      </trkpt>
      <trkpt lat="43.60613" lon="1.1811">
        <ele>271</ele>
        <time>2020-12-24T18:56:09+01:00</time>
      </trkpt>
      <trkpt lat="43.60616" lon="1.18121">
        <ele>270</ele>
        <time>2020-12-24T18:56:14+01:00</time>
      </trkpt>
      <trkpt lat="43.60622" lon="1.18136">
        <ele>270</ele>
        <time>2020-12-24T18:56:23+01:00</time>
      </trkpt>
      <trkpt lat="43.60622" lon="1.18147">
        <ele>269</ele>
        <time>2020-12-24T18:56:30+01:00</time>
      </trkpt>
      <trkpt lat="43.60625" lon="1.18154">
        <ele>269</ele>
        <time>2020-12-24T18:56:33+01:00</time>
      </trkpt>
      <trkpt lat="43.60629" lon="1.18164">
        <ele>268</ele>
        <time>2020-12-24T18:56:42+01:00</time>
      </trkpt>
      <trkpt lat="43.60637" lon="1.18191">
        <ele>267</ele>
        <time>2020-12-24T18:56:54+01:00</time>
      </trkpt>
      <trkpt lat="43.60639" lon="1.18222">
        <ele>266</ele>
        <time>2020-12-24T18:57:33+01:00</time>
      </trkpt>
      <trkpt lat="43.6064" lon="1.18262">
        <ele>265</ele>
        <time>2020-12-24T18:57:40+01:00</time>
      </trkpt>
      <trkpt lat="43.60638" lon="1.18285">
        <ele>264</ele>
        <time>2020-12-24T18:57:56+01:00</time>
      </trkpt>
      <trkpt lat="43.60636" lon="1.183">
        <ele>263</ele>
        <time>2020-12-24T18:58:01+01:00</time>
      </trkpt>
      <trkpt lat="43.60634" lon="1.18311">
        <ele>263</ele>
        <time>2020-12-24T18:58:07+01:00</time>
      </trkpt>
      <trkpt lat="43.60632" lon="1.18325">
        <ele>263</ele>
        <time>2020-12-24T18:58:13+01:00</time>
      </trkpt>
      <trkpt lat="43.6063" lon="1.18345">
        <ele>261</ele>
        <time>2020-12-24T18:58:29+01:00</time>
      </trkpt>
      <trkpt lat="43.60626" lon="1.18364">
        <ele>260</ele>
        <time>2020-12-24T18:58:42+01:00</time>
      </trkpt>
      <trkpt lat="43.60625" lon="1.18383">
        <ele>259</ele>
        <time>2020-12-24T18:58:50+01:00</time>
      </trkpt>
      <trkpt lat="43.60627" lon="1.18398">
        <ele>258</ele>
        <time>2020-12-24T18:59:04+01:00</time>
      </trkpt>
      <trkpt lat="43.60629" lon="1.18416">
        <ele>257</ele>
        <time>2020-12-24T18:59:14+01:00</time>
      </trkpt>
      <trkpt lat="43.60628" lon="1.18437">
        <ele>257</ele>
        <time>2020-12-24T18:59:28+01:00</time>
      </trkpt>
      <trkpt lat="43.60618" lon="1.18463">
        <ele>256</ele>
        <time>2020-12-24T18:59:42+01:00</time>
      </trkpt>
      <trkpt lat="43.6061" lon="1.18477">
        <ele>256</ele>
        <time>2020-12-24T18:59:52+01:00</time>
      </trkpt>
      <trkpt lat="43.60605" lon="1.18496">
        <ele>255</ele>
        <time>2020-12-24T19:00:11+01:00</time>
      </trkpt>
      <trkpt lat="43.60607" lon="1.18515">
        <ele>253</ele>
        <time>2020-12-24T19:00:21+01:00</time>
      </trkpt>
      <trkpt lat="43.60607" lon="1.18532">
        <ele>252</ele>
        <time>2020-12-24T19:00:26+01:00</time>
      </trkpt>
      <trkpt lat="43.60607" lon="1.18554">
        <ele>250</ele>
        <time>2020-12-24T19:00:31+01:00</time>
      </trkpt>
      <trkpt lat="43.60621" lon="1.18544">
        <ele>250</ele>
        <time>2020-12-24T19:00:44+01:00</time>
      </trkpt>
      <trkpt lat="43.60643" lon="1.18532">
        <ele>251</ele>
        <time>2020-12-24T19:01:03+01:00</time>
      </trkpt>
      <trkpt lat="43.60659" lon="1.18525">
        <ele>251</ele>
        <time>2020-12-24T19:01:30+01:00</time>
      </trkpt>
      <trkpt lat="43.60673" lon="1.18514">
        <ele>252</ele>
        <time>2020-12-24T19:01:53+01:00</time>
      </trkpt>
      <trkpt lat="43.6069" lon="1.18502">
        <ele>252</ele>
        <time>2020-12-24T19:01:59+01:00</time>
      </trkpt>
      <trkpt lat="43.60703" lon="1.18497">
        <ele>252</ele>
        <time>2020-12-24T19:02:04+01:00</time>
      </trkpt>
      <trkpt lat="43.60715" lon="1.1849">
        <ele>252</ele>
        <time>2020-12-24T19:02:09+01:00</time>
      </trkpt>
      <trkpt lat="43.60723" lon="1.18485">
        <ele>252</ele>
        <time>2020-12-24T19:02:17+01:00</time>
      </trkpt>
      <trkpt lat="43.60737" lon="1.18476">
        <ele>252</ele>
        <time>2020-12-24T19:02:23+01:00</time>
      </trkpt>
      <trkpt lat="43.60745" lon="1.18473">
        <ele>252</ele>
        <time>2020-12-24T19:02:36+01:00</time>
      </trkpt>
      <trkpt lat="43.6076" lon="1.18463">
        <ele>252</ele>
        <time>2020-12-24T19:02:50+01:00</time>
      </trkpt>
      <trkpt lat="43.60772" lon="1.18456">
        <ele>253</ele>
        <time>2020-12-24T19:03:00+01:00</time>
      </trkpt>
      <trkpt lat="43.60779" lon="1.18453">
        <ele>253</ele>
        <time>2020-12-24T19:03:10+01:00</time>
      </trkpt>
      <trkpt lat="43.60786" lon="1.1845">
        <ele>253</ele>
        <time>2020-12-24T19:03:14+01:00</time>
      </trkpt>
      <trkpt lat="43.60795" lon="1.18443">
        <ele>253</ele>
        <time>2020-12-24T19:03:19+01:00</time>
      </trkpt>
      <trkpt lat="43.60801" lon="1.18441">
        <ele>253</ele>
        <time>2020-12-24T19:03:24+01:00</time>
      </trkpt>
      <trkpt lat="43.60809" lon="1.18434">
        <ele>254</ele>
        <time>2020-12-24T19:03:37+01:00</time>
      </trkpt>
      <trkpt lat="43.60819" lon="1.18429">
        <ele>254</ele>
        <time>2020-12-24T19:03:44+01:00</time>
      </trkpt>
      <trkpt lat="43.60832" lon="1.18425">
        <ele>254</ele>
        <time>2020-12-24T19:03:55+01:00</time>
      </trkpt>
      <trkpt lat="43.60872" lon="1.18402">
        <ele>254</ele>
        <time>2020-12-24T19:04:40+01:00</time>
      </trkpt>
      <trkpt lat="43.60893" lon="1.18394">
        <ele>254</ele>
        <time>2020-12-24T19:04:48+01:00</time>
      </trkpt>
      <trkpt lat="43.60907" lon="1.18386">
        <ele>255</ele>
        <time>2020-12-24T19:05:04+01:00</time>
      </trkpt>
      <trkpt lat="43.60927" lon="1.18378">
        <ele>257</ele>
        <time>2020-12-24T19:05:13+01:00</time>
      </trkpt>
      <trkpt lat="43.60941" lon="1.18367">
        <ele>259</ele>
        <time>2020-12-24T19:05:23+01:00</time>
      </trkpt>
      <trkpt lat="43.60961" lon="1.18356">
        <ele>260</ele>
        <time>2020-12-24T19:05:40+01:00</time>
      </trkpt>
      <trkpt lat="43.60981" lon="1.18343">
        <ele>261</ele>
        <time>2020-12-24T19:06:05+01:00</time>
      </trkpt>
      <trkpt lat="43.60999" lon="1.18329">
        <ele>262</ele>
        <time>2020-12-24T19:06:24+01:00</time>
      </trkpt>
      <trkpt lat="43.61031" lon="1.1831">
        <ele>264</ele>
        <time>2020-12-24T19:06:50+01:00</time>
      </trkpt>
      <trkpt lat="43.61043" lon="1.18301">
        <ele>264</ele>
        <time>2020-12-24T19:07:01+01:00</time>
      </trkpt>
      <trkpt lat="43.61055" lon="1.183">
        <ele>263</ele>
        <time>2020-12-24T19:07:10+01:00</time>
      </trkpt>
      <trkpt lat="43.61068" lon="1.18295">
        <ele>263</ele>
        <time>2020-12-24T19:07:21+01:00</time>
      </trkpt>
      <trkpt lat="43.611" lon="1.18278">
        <ele>262</ele>
        <time>2020-12-24T19:07:48+01:00</time>
      </trkpt>
      <trkpt lat="43.61125" lon="1.18264">
        <ele>262</ele>
        <time>2020-12-24T19:08:19+01:00</time>
      </trkpt>
      <trkpt lat="43.61137" lon="1.18255">
        <ele>261</ele>
        <time>2020-12-24T19:08:25+01:00</time>
      </trkpt>
      <trkpt lat="43.61146" lon="1.18249">
        <ele>261</ele>
        <time>2020-12-24T19:08:30+01:00</time>
      </trkpt>
      <trkpt lat="43.61155" lon="1.18245">
        <ele>260</ele>
        <time>2020-12-24T19:08:39+01:00</time>
      </trkpt>
      <trkpt lat="43.61162" lon="1.18241">
        <ele>260</ele>
        <time>2020-12-24T19:08:43+01:00</time>
      </trkpt>
      <trkpt lat="43.61182" lon="1.18229">
        <ele>259</ele>
        <time>2020-12-24T19:09:12+01:00</time>
      </trkpt>
      <trkpt lat="43.61198" lon="1.18223">
        <ele>259</ele>
        <time>2020-12-24T19:09:14+01:00</time>
      </trkpt>
      <trkpt lat="43.6121" lon="1.18215">
        <ele>258</ele>
        <time>2020-12-24T19:09:26+01:00</time>
      </trkpt>
      <trkpt lat="43.61219" lon="1.1821">
        <ele>258</ele>
        <time>2020-12-24T19:09:35+01:00</time>
      </trkpt>
      <trkpt lat="43.61227" lon="1.18204">
        <ele>257</ele>
        <time>2020-12-24T19:09:40+01:00</time>
      </trkpt>
      <trkpt lat="43.61237" lon="1.18198">
        <ele>257</ele>
        <time>2020-12-24T19:09:49+01:00</time>
      </trkpt>
      <trkpt lat="43.61255" lon="1.18189">
        <ele>257</ele>
        <time>2020-12-24T19:10:02+01:00</time>
      </trkpt>
      <trkpt lat="43.61265" lon="1.18218">
        <ele>256</ele>
        <time>2020-12-24T19:10:14+01:00</time>
      </trkpt>
      <trkpt lat="43.61271" lon="1.18239">
        <ele>256</ele>
        <time>2020-12-24T19:10:29+01:00</time>
      </trkpt>
      <trkpt lat="43.61275" lon="1.1825">
        <ele>255</ele>
        <time>2020-12-24T19:10:35+01:00</time>
      </trkpt>
      <trkpt lat="43.61279" lon="1.18269">
        <ele>255</ele>
        <time>2020-12-24T19:10:46+01:00</time>
      </trkpt>
      <trkpt lat="43.61282" lon="1.18283">
        <ele>254</ele>
        <time>2020-12-24T19:10:55+01:00</time>
      </trkpt>
      <trkpt lat="43.61289" lon="1.18305">
        <ele>253</ele>
        <time>2020-12-24T19:11:10+01:00</time>
      </trkpt>
      <trkpt lat="43.61294" lon="1.18322">
        <ele>252</ele>
        <time>2020-12-24T19:11:19+01:00</time>
      </trkpt>
      <trkpt lat="43.613" lon="1.18342">
        <ele>251</ele>
        <time>2020-12-24T19:11:33+01:00</time>
      </trkpt>
      <trkpt lat="43.61306" lon="1.18359">
        <ele>250</ele>
        <time>2020-12-24T19:11:40+01:00</time>
      </trkpt>
      <trkpt lat="43.61314" lon="1.18386">
        <ele>249</ele>
        <time>2020-12-24T19:12:05+01:00</time>
      </trkpt>
      <trkpt lat="43.6132" lon="1.1841">
        <ele>249</ele>
        <time>2020-12-24T19:12:16+01:00</time>
      </trkpt>
      <trkpt lat="43.61327" lon="1.18432">
        <ele>248</ele>
        <time>2020-12-24T19:12:30+01:00</time>
      </trkpt>
      <trkpt lat="43.6133" lon="1.18447">
        <ele>248</ele>
        <time>2020-12-24T19:12:36+01:00</time>
      </trkpt>
      <trkpt lat="43.61335" lon="1.18465">
        <ele>247</ele>
        <time>2020-12-24T19:12:44+01:00</time>
      </trkpt>
      <trkpt lat="43.61339" lon="1.18477">
        <ele>247</ele>
        <time>2020-12-24T19:12:49+01:00</time>
      </trkpt>
      <trkpt lat="43.61344" lon="1.18493">
        <ele>246</ele>
        <time>2020-12-24T19:13:16+01:00</time>
      </trkpt>
      <trkpt lat="43.6135" lon="1.18515">
        <ele>245</ele>
        <time>2020-12-24T19:13:28+01:00</time>
      </trkpt>
      <trkpt lat="43.61356" lon="1.18532">
        <ele>245</ele>
        <time>2020-12-24T19:13:42+01:00</time>
      </trkpt>
      <trkpt lat="43.6136" lon="1.18544">
        <ele>244</ele>
        <time>2020-12-24T19:13:46+01:00</time>
      </trkpt>
      <trkpt lat="43.61363" lon="1.18559">
        <ele>244</ele>
        <time>2020-12-24T19:13:49+01:00</time>
      </trkpt>
      <trkpt lat="43.6137" lon="1.18575">
        <ele>244</ele>
        <time>2020-12-24T19:14:01+01:00</time>
      </trkpt>
      <trkpt lat="43.61374" lon="1.18592">
        <ele>244</ele>
        <time>2020-12-24T19:14:12+01:00</time>
      </trkpt>
      <trkpt lat="43.61378" lon="1.18607">
        <ele>243</ele>
        <time>2020-12-24T19:14:21+01:00</time>
      </trkpt>
      <trkpt lat="43.61388" lon="1.18636">
        <ele>242</ele>
        <time>2020-12-24T19:14:44+01:00</time>
      </trkpt>
      <trkpt lat="43.61377" lon="1.18642">
        <ele>242</ele>
        <time>2020-12-24T19:15:00+01:00</time>
      </trkpt>
      <trkpt lat="43.6137" lon="1.18646">
        <ele>242</ele>
        <time>2020-12-24T19:16:03+01:00</time>
      </trkpt>
      <trkpt lat="43.61359" lon="1.1865">
        <ele>242</ele>
        <time>2020-12-24T19:16:12+01:00</time>
      </trkpt>
      <trkpt lat="43.61339" lon="1.18661">
        <ele>242</ele>
        <time>2020-12-24T19:16:40+01:00</time>
      </trkpt>
      <trkpt lat="43.61319" lon="1.18672">
        <ele>242</ele>
        <time>2020-12-24T19:16:47+01:00</time>
      </trkpt>
      <trkpt lat="43.61299" lon="1.18684">
        <ele>242</ele>
        <time>2020-12-24T19:17:04+01:00</time>
      </trkpt>
      <trkpt lat="43.61269" lon="1.18701">
        <ele>243</ele>
        <time>2020-12-24T19:17:39+01:00</time>
      </trkpt>
      <trkpt lat="43.61253" lon="1.18709">
        <ele>243</ele>
        <time>2020-12-24T19:17:42+01:00</time>
      </trkpt>
      <trkpt lat="43.61242" lon="1.18715">
        <ele>243</ele>
        <time>2020-12-24T19:17:54+01:00</time>
      </trkpt>
      <trkpt lat="43.61231" lon="1.18721">
        <ele>243</ele>
        <time>2020-12-24T19:18:05+01:00</time>
      </trkpt>
      <trkpt lat="43.6122" lon="1.18726">
        <ele>243</ele>
        <time>2020-12-24T19:18:13+01:00</time>
      </trkpt>
      <trkpt lat="43.61211" lon="1.18732">
        <ele>243</ele>
        <time>2020-12-24T19:18:20+01:00</time>
      </trkpt>
      <trkpt lat="43.612" lon="1.18739">
        <ele>243</ele>
        <time>2020-12-24T19:18:28+01:00</time>
      </trkpt>
      <trkpt lat="43.61188" lon="1.18748">
        <ele>243</ele>
        <time>2020-12-24T19:18:39+01:00</time>
      </trkpt>
      <trkpt lat="43.61165" lon="1.18758">
        <ele>243</ele>
        <time>2020-12-24T19:19:03+01:00</time>
      </trkpt>
      <trkpt lat="43.61143" lon="1.18772">
        <ele>243</ele>
        <time>2020-12-24T19:19:22+01:00</time>
      </trkpt>
      <trkpt lat="43.61128" lon="1.1878">
        <ele>243</ele>
        <time>2020-12-24T19:19:33+01:00</time>
      </trkpt>
      <trkpt lat="43.61106" lon="1.18792">
        <ele>243</ele>
        <time>2020-12-24T19:19:44+01:00</time>
      </trkpt>
      <trkpt lat="43.61062" lon="1.18815">
        <ele>243</ele>
        <time>2020-12-24T19:20:30+01:00</time>
      </trkpt>
      <trkpt lat="43.61036" lon="1.18831">
        <ele>243</ele>
        <time>2020-12-24T19:20:53+01:00</time>
      </trkpt>
      <trkpt lat="43.61021" lon="1.18838">
        <ele>243</ele>
        <time>2020-12-24T19:21:06+01:00</time>
      </trkpt>
      <trkpt lat="43.61009" lon="1.18844">
        <ele>242</ele>
        <time>2020-12-24T19:21:18+01:00</time>
      </trkpt>
      <trkpt lat="43.60993" lon="1.18856">
        <ele>242</ele>
        <time>2020-12-24T19:21:30+01:00</time>
      </trkpt>
      <trkpt lat="43.60966" lon="1.18869">
        <ele>242</ele>
        <time>2020-12-24T19:22:00+01:00</time>
      </trkpt>
      <trkpt lat="43.60946" lon="1.18879">
        <ele>241</ele>
        <time>2020-12-24T19:22:13+01:00</time>
      </trkpt>
      <trkpt lat="43.60934" lon="1.18888">
        <ele>241</ele>
        <time>2020-12-24T19:22:24+01:00</time>
      </trkpt>
      <trkpt lat="43.60922" lon="1.18894">
        <ele>240</ele>
        <time>2020-12-24T19:22:35+01:00</time>
      </trkpt>
      <trkpt lat="43.60909" lon="1.18902">
        <ele>240</ele>
        <time>2020-12-24T19:22:43+01:00</time>
      </trkpt>
      <trkpt lat="43.60892" lon="1.18909">
        <ele>240</ele>
        <time>2020-12-24T19:23:01+01:00</time>
      </trkpt>
      <trkpt lat="43.60873" lon="1.1892">
        <ele>240</ele>
        <time>2020-12-24T19:23:18+01:00</time>
      </trkpt>
      <trkpt lat="43.60852" lon="1.18931">
        <ele>240</ele>
        <time>2020-12-24T19:23:39+01:00</time>
      </trkpt>
      <trkpt lat="43.60836" lon="1.1894">
        <ele>240</ele>
        <time>2020-12-24T19:23:50+01:00</time>
      </trkpt>
      <trkpt lat="43.60815" lon="1.18953">
        <ele>240</ele>
        <time>2020-12-24T19:24:08+01:00</time>
      </trkpt>
      <trkpt lat="43.60786" lon="1.18969">
        <ele>240</ele>
        <time>2020-12-24T19:24:34+01:00</time>
      </trkpt>
      <trkpt lat="43.6075" lon="1.18987">
        <ele>239</ele>
        <time>2020-12-24T19:25:04+01:00</time>
      </trkpt>
      <trkpt lat="43.60732" lon="1.19">
        <ele>238</ele>
        <time>2020-12-24T19:25:29+01:00</time>
      </trkpt>
      <trkpt lat="43.60722" lon="1.19009">
        <ele>238</ele>
        <time>2020-12-24T19:25:38+01:00</time>
      </trkpt>
      <trkpt lat="43.60713" lon="1.19028">
        <ele>238</ele>
        <time>2020-12-24T19:25:43+01:00</time>
      </trkpt>
      <trkpt lat="43.60712" lon="1.19036">
        <ele>238</ele>
        <time>2020-12-24T19:26:03+01:00</time>
      </trkpt>
      <trkpt lat="43.60727" lon="1.19041">
        <ele>238</ele>
        <time>2020-12-24T19:26:24+01:00</time>
      </trkpt>
      <trkpt lat="43.6073" lon="1.19043">
        <ele>238</ele>
        <time>2020-12-24T19:26:27+01:00</time>
      </trkpt>
      <trkpt lat="43.60735" lon="1.19052">
        <ele>238</ele>
        <time>2020-12-24T19:26:32+01:00</time>
      </trkpt>
      <trkpt lat="43.60741" lon="1.1906">
        <ele>239</ele>
        <time>2020-12-24T19:26:35+01:00</time>
      </trkpt>
      <trkpt lat="43.60748" lon="1.19071">
        <ele>238</ele>
        <time>2020-12-24T19:26:47+01:00</time>
      </trkpt>
      <trkpt lat="43.60751" lon="1.19077">
        <ele>238</ele>
        <time>2020-12-24T19:26:55+01:00</time>
      </trkpt>
      <trkpt lat="43.60755" lon="1.19084">
        <ele>238</ele>
        <time>2020-12-24T19:27:02+01:00</time>
      </trkpt>
      <trkpt lat="43.60764" lon="1.19093">
        <ele>238</ele>
        <time>2020-12-24T19:27:10+01:00</time>
      </trkpt>
      <trkpt lat="43.60772" lon="1.19107">
        <ele>238</ele>
        <time>2020-12-24T19:27:21+01:00</time>
      </trkpt>
      <trkpt lat="43.60779" lon="1.19122">
        <ele>238</ele>
        <time>2020-12-24T19:27:32+01:00</time>
      </trkpt>
      <trkpt lat="43.60788" lon="1.19129">
        <ele>238</ele>
        <time>2020-12-24T19:27:40+01:00</time>
      </trkpt>
      <trkpt lat="43.60795" lon="1.19133">
        <ele>238</ele>
        <time>2020-12-24T19:27:48+01:00</time>
      </trkpt>
      <trkpt lat="43.60796" lon="1.19134">
        <ele>238</ele>
        <time>2021-01-18T18:07:25+01:00</time>
      </trkpt>
      <trkpt lat="43.60805" lon="1.19143">
        <ele>238</ele>
        <time>2020-12-24T19:27:55+01:00</time>
      </trkpt>
      <trkpt lat="43.6081" lon="1.19154">
        <ele>238</ele>
        <time>2020-12-24T19:28:05+01:00</time>
      </trkpt>
      <trkpt lat="43.60817" lon="1.19163">
        <ele>238</ele>
        <time>2020-12-24T19:28:13+01:00</time>
      </trkpt>
      <trkpt lat="43.60824" lon="1.19173">
        <ele>238</ele>
        <time>2020-12-24T19:28:17+01:00</time>
      </trkpt>
      <trkpt lat="43.60831" lon="1.19187">
        <ele>238</ele>
        <time>2020-12-24T19:28:28+01:00</time>
      </trkpt>
      <trkpt lat="43.60841" lon="1.19202">
        <ele>238</ele>
        <time>2020-12-24T19:28:44+01:00</time>
      </trkpt>
      <trkpt lat="43.60851" lon="1.19221">
        <ele>237</ele>
        <time>2020-12-24T19:28:53+01:00</time>
      </trkpt>
      <trkpt lat="43.6086" lon="1.19233">
        <ele>237</ele>
        <time>2020-12-24T19:29:04+01:00</time>
      </trkpt>
      <trkpt lat="43.60868" lon="1.19248">
        <ele>237</ele>
        <time>2020-12-24T19:29:12+01:00</time>
      </trkpt>
      <trkpt lat="43.60876" lon="1.19264">
        <ele>237</ele>
        <time>2020-12-24T19:29:27+01:00</time>
      </trkpt>
      <trkpt lat="43.60886" lon="1.19281">
        <ele>237</ele>
        <time>2020-12-24T19:29:41+01:00</time>
      </trkpt>
      <trkpt lat="43.60892" lon="1.19292">
        <ele>237</ele>
        <time>2020-12-24T19:29:47+01:00</time>
      </trkpt>
      <trkpt lat="43.60896" lon="1.19301">
        <ele>237</ele>
        <time>2020-12-24T19:29:55+01:00</time>
      </trkpt>
      <trkpt lat="43.60902" lon="1.19313">
        <ele>237</ele>
        <time>2020-12-24T19:30:03+01:00</time>
      </trkpt>
      <trkpt lat="43.60906" lon="1.19321">
        <ele>237</ele>
        <time>2020-12-24T19:30:07+01:00</time>
      </trkpt>
      <trkpt lat="43.60909" lon="1.19329">
        <ele>237</ele>
        <time>2020-12-24T19:30:11+01:00</time>
      </trkpt>
      <trkpt lat="43.60914" lon="1.19336">
        <ele>237</ele>
        <time>2020-12-24T19:30:26+01:00</time>
      </trkpt>
      <trkpt lat="43.60918" lon="1.19342">
        <ele>237</ele>
        <time>2020-12-24T19:30:30+01:00</time>
      </trkpt>
      <trkpt lat="43.60923" lon="1.19349">
        <ele>237</ele>
        <time>2020-12-24T19:30:32+01:00</time>
      </trkpt>
      <trkpt lat="43.6093" lon="1.1936">
        <ele>237</ele>
        <time>2020-12-24T19:30:45+01:00</time>
      </trkpt>
      <trkpt lat="43.60936" lon="1.19374">
        <ele>237</ele>
        <time>2020-12-24T19:30:51+01:00</time>
      </trkpt>
      <trkpt lat="43.60944" lon="1.19387">
        <ele>237</ele>
        <time>2020-12-24T19:31:22+01:00</time>
      </trkpt>
      <trkpt lat="43.60951" lon="1.194">
        <ele>237</ele>
        <time>2020-12-24T19:31:28+01:00</time>
      </trkpt>
      <trkpt lat="43.60958" lon="1.19411">
        <ele>237</ele>
        <time>2020-12-24T19:31:33+01:00</time>
      </trkpt>
      <trkpt lat="43.60965" lon="1.19424">
        <ele>237</ele>
        <time>2020-12-24T19:31:36+01:00</time>
      </trkpt>
      <trkpt lat="43.60971" lon="1.19436">
        <ele>237</ele>
        <time>2020-12-24T19:31:47+01:00</time>
      </trkpt>
      <trkpt lat="43.60975" lon="1.19441">
        <ele>237</ele>
        <time>2020-12-24T19:31:53+01:00</time>
      </trkpt>
      <trkpt lat="43.60978" lon="1.1945">
        <ele>237</ele>
        <time>2020-12-24T19:32:00+01:00</time>
      </trkpt>
      <trkpt lat="43.60983" lon="1.1946">
        <ele>237</ele>
        <time>2020-12-24T19:32:15+01:00</time>
      </trkpt>
      <trkpt lat="43.60991" lon="1.19454">
        <ele>237</ele>
        <time>2020-12-24T19:32:22+01:00</time>
      </trkpt>
      <trkpt lat="43.61" lon="1.1945">
        <ele>237</ele>
        <time>2020-12-24T19:32:34+01:00</time>
      </trkpt>
      <trkpt lat="43.61014" lon="1.19441">
        <ele>236</ele>
        <time>2020-12-24T19:32:40+01:00</time>
      </trkpt>
      <trkpt lat="43.6103" lon="1.19432">
        <ele>235</ele>
        <time>2020-12-24T19:33:07+01:00</time>
      </trkpt>
      <trkpt lat="43.61047" lon="1.19424">
        <ele>235</ele>
        <time>2020-12-24T19:33:17+01:00</time>
      </trkpt>
      <trkpt lat="43.61062" lon="1.19416">
        <ele>235</ele>
        <time>2020-12-24T19:33:28+01:00</time>
      </trkpt>
      <trkpt lat="43.61075" lon="1.19409">
        <ele>234</ele>
        <time>2020-12-24T19:33:40+01:00</time>
      </trkpt>
      <trkpt lat="43.61085" lon="1.19404">
        <ele>235</ele>
        <time>2020-12-24T19:33:45+01:00</time>
      </trkpt>
      <trkpt lat="43.61105" lon="1.19394">
        <ele>236</ele>
        <time>2020-12-24T19:34:07+01:00</time>
      </trkpt>
      <trkpt lat="43.61125" lon="1.19381">
        <ele>236</ele>
        <time>2020-12-24T19:34:22+01:00</time>
      </trkpt>
      <trkpt lat="43.61143" lon="1.19373">
        <ele>237</ele>
        <time>2020-12-24T19:34:40+01:00</time>
      </trkpt>
      <trkpt lat="43.61159" lon="1.19365">
        <ele>237</ele>
        <time>2020-12-24T19:34:53+01:00</time>
      </trkpt>
      <trkpt lat="43.61177" lon="1.19357">
        <ele>237</ele>
        <time>2020-12-24T19:35:05+01:00</time>
      </trkpt>
      <trkpt lat="43.61186" lon="1.19373">
        <ele>237</ele>
        <time>2020-12-24T19:35:13+01:00</time>
      </trkpt>
      <trkpt lat="43.61197" lon="1.19389">
        <ele>237</ele>
        <time>2020-12-24T19:35:25+01:00</time>
      </trkpt>
      <trkpt lat="43.61202" lon="1.19402">
        <ele>236</ele>
        <time>2020-12-24T19:35:32+01:00</time>
      </trkpt>
      <trkpt lat="43.61207" lon="1.19414">
        <ele>236</ele>
        <time>2020-12-24T19:35:41+01:00</time>
      </trkpt>
      <trkpt lat="43.61209" lon="1.19425">
        <ele>235</ele>
        <time>2020-12-24T19:35:49+01:00</time>
      </trkpt>
      <trkpt lat="43.61211" lon="1.19436">
        <ele>235</ele>
        <time>2020-12-24T19:35:57+01:00</time>
      </trkpt>
      <trkpt lat="43.61211" lon="1.19448">
        <ele>235</ele>
        <time>2020-12-24T19:36:04+01:00</time>
      </trkpt>
      <trkpt lat="43.61212" lon="1.19459">
        <ele>235</ele>
        <time>2020-12-24T19:36:16+01:00</time>
      </trkpt>
      <trkpt lat="43.61213" lon="1.19468">
        <ele>235</ele>
        <time>2020-12-24T19:36:18+01:00</time>
      </trkpt>
      <trkpt lat="43.61213" lon="1.19475">
        <ele>234</ele>
        <time>2020-12-24T19:36:24+01:00</time>
      </trkpt>
      <trkpt lat="43.61217" lon="1.19485">
        <ele>234</ele>
        <time>2020-12-24T19:36:28+01:00</time>
      </trkpt>
      <trkpt lat="43.61223" lon="1.19488">
        <ele>233</ele>
        <time>2020-12-24T19:36:31+01:00</time>
      </trkpt>
      <trkpt lat="43.61233" lon="1.19487">
        <ele>233</ele>
        <time>2020-12-24T19:36:38+01:00</time>
      </trkpt>
      <trkpt lat="43.61247" lon="1.19483">
        <ele>232</ele>
        <time>2020-12-24T19:36:48+01:00</time>
      </trkpt>
      <trkpt lat="43.61258" lon="1.19482">
        <ele>231</ele>
        <time>2020-12-24T19:37:06+01:00</time>
      </trkpt>
      <trkpt lat="43.61268" lon="1.1948">
        <ele>230</ele>
        <time>2020-12-24T19:37:14+01:00</time>
      </trkpt>
      <trkpt lat="43.6128" lon="1.19485">
        <ele>230</ele>
        <time>2020-12-24T19:37:21+01:00</time>
      </trkpt>
      <trkpt lat="43.61286" lon="1.19501">
        <ele>230</ele>
        <time>2020-12-24T19:37:29+01:00</time>
      </trkpt>
      <trkpt lat="43.61296" lon="1.19528">
        <ele>231</ele>
        <time>2020-12-24T19:37:51+01:00</time>
      </trkpt>
      <trkpt lat="43.61301" lon="1.19542">
        <ele>231</ele>
        <time>2020-12-24T19:38:04+01:00</time>
      </trkpt>
      <trkpt lat="43.613" lon="1.19552">
        <ele>231</ele>
        <time>2020-12-24T19:38:07+01:00</time>
      </trkpt>
      <trkpt lat="43.61287" lon="1.19589">
        <ele>228</ele>
        <time>2020-12-24T19:38:34+01:00</time>
      </trkpt>
      <trkpt lat="43.61287" lon="1.19607">
        <ele>228</ele>
        <time>2020-12-24T19:38:43+01:00</time>
      </trkpt>
      <trkpt lat="43.6129" lon="1.19627">
        <ele>227</ele>
        <time>2020-12-24T19:38:53+01:00</time>
      </trkpt>
      <trkpt lat="43.61303" lon="1.19636">
        <ele>229</ele>
        <time>2020-12-24T19:39:04+01:00</time>
      </trkpt>
      <trkpt lat="43.6131" lon="1.19647">
        <ele>230</ele>
        <time>2021-01-18T18:13:05+01:00</time>
      </trkpt>
      <trkpt lat="43.61311" lon="1.19658">
        <ele>229</ele>
        <time>2020-12-24T19:39:21+01:00</time>
      </trkpt>
      <trkpt lat="43.61311" lon="1.19678">
        <ele>228</ele>
        <time>2020-12-24T19:39:27+01:00</time>
      </trkpt>
      <trkpt lat="43.61313" lon="1.19691">
        <ele>227</ele>
        <time>2020-12-24T19:39:39+01:00</time>
      </trkpt>
      <trkpt lat="43.61313" lon="1.19701">
        <ele>226</ele>
        <time>2020-12-24T19:39:43+01:00</time>
      </trkpt>
      <trkpt lat="43.61315" lon="1.19718">
        <ele>225</ele>
        <time>2020-12-24T19:40:00+01:00</time>
      </trkpt>
      <trkpt lat="43.6132" lon="1.1974">
        <ele>224</ele>
        <time>2020-12-24T19:40:07+01:00</time>
      </trkpt>
      <trkpt lat="43.61322" lon="1.19758">
        <ele>223</ele>
        <time>2020-12-24T19:40:15+01:00</time>
      </trkpt>
      <trkpt lat="43.61322" lon="1.19782">
        <ele>221</ele>
        <time>2020-12-24T19:40:36+01:00</time>
      </trkpt>
      <trkpt lat="43.61322" lon="1.19802">
        <ele>221</ele>
        <time>2020-12-24T19:40:44+01:00</time>
      </trkpt>
      <trkpt lat="43.61319" lon="1.19813">
        <ele>220</ele>
        <time>2020-12-24T19:40:52+01:00</time>
      </trkpt>
      <trkpt lat="43.61308" lon="1.19803">
        <ele>220</ele>
        <time>2020-12-24T19:41:10+01:00</time>
      </trkpt>
      <trkpt lat="43.613" lon="1.19794">
        <ele>221</ele>
        <time>2020-12-24T19:41:20+01:00</time>
      </trkpt>
      <trkpt lat="43.61289" lon="1.19788">
        <ele>221</ele>
        <time>2020-12-24T19:41:28+01:00</time>
      </trkpt>
      <trkpt lat="43.61269" lon="1.19771">
        <ele>223</ele>
        <time>2020-12-24T19:41:57+01:00</time>
      </trkpt>
      <trkpt lat="43.61253" lon="1.19761">
        <ele>224</ele>
        <time>2020-12-24T19:42:01+01:00</time>
      </trkpt>
      <trkpt lat="43.61245" lon="1.19752">
        <ele>224</ele>
        <time>2020-12-24T19:42:10+01:00</time>
      </trkpt>
      <trkpt lat="43.61234" lon="1.19745">
        <ele>225</ele>
        <time>2020-12-24T19:42:19+01:00</time>
      </trkpt>
      <trkpt lat="43.61223" lon="1.19734">
        <ele>226</ele>
        <time>2020-12-24T19:42:30+01:00</time>
      </trkpt>
      <trkpt lat="43.61216" lon="1.19731">
        <ele>227</ele>
        <time>2020-12-24T19:42:34+01:00</time>
      </trkpt>
      <trkpt lat="43.61213" lon="1.19725">
        <ele>227</ele>
        <time>2020-12-24T19:42:37+01:00</time>
      </trkpt>
      <trkpt lat="43.612" lon="1.19712">
        <ele>228</ele>
        <time>2020-12-24T19:42:53+01:00</time>
      </trkpt>
      <trkpt lat="43.61188" lon="1.19703">
        <ele>229</ele>
        <time>2020-12-24T19:43:02+01:00</time>
      </trkpt>
      <trkpt lat="43.61166" lon="1.19685">
        <ele>230</ele>
        <time>2020-12-24T19:43:36+01:00</time>
      </trkpt>
      <trkpt lat="43.61151" lon="1.19674">
        <ele>231</ele>
        <time>2020-12-24T19:43:46+01:00</time>
      </trkpt>
      <trkpt lat="43.61138" lon="1.19662">
        <ele>231</ele>
        <time>2020-12-24T19:43:55+01:00</time>
      </trkpt>
      <trkpt lat="43.61126" lon="1.19652">
        <ele>231</ele>
        <time>2020-12-24T19:44:04+01:00</time>
      </trkpt>
      <trkpt lat="43.61115" lon="1.19642">
        <ele>232</ele>
        <time>2020-12-24T19:44:13+01:00</time>
      </trkpt>
      <trkpt lat="43.61099" lon="1.19631">
        <ele>233</ele>
        <time>2020-12-24T19:44:26+01:00</time>
      </trkpt>
      <trkpt lat="43.61095" lon="1.19641">
        <ele>234</ele>
        <time>2020-12-24T19:44:29+01:00</time>
      </trkpt>
      <trkpt lat="43.61085" lon="1.19659">
        <ele>235</ele>
        <time>2020-12-24T19:44:47+01:00</time>
      </trkpt>
      <trkpt lat="43.61076" lon="1.19686">
        <ele>235</ele>
        <time>2020-12-24T19:45:03+01:00</time>
      </trkpt>
      <trkpt lat="43.61062" lon="1.19718">
        <ele>236</ele>
        <time>2020-12-24T19:45:26+01:00</time>
      </trkpt>
      <trkpt lat="43.61049" lon="1.19749">
        <ele>236</ele>
        <time>2020-12-24T19:45:47+01:00</time>
      </trkpt>
      <trkpt lat="43.61019" lon="1.19813">
        <ele>236</ele>
        <time>2020-12-24T19:46:51+01:00</time>
      </trkpt>
      <trkpt lat="43.60996" lon="1.19862">
        <ele>236</ele>
        <time>2020-12-24T19:47:15+01:00</time>
      </trkpt>
      <trkpt lat="43.60988" lon="1.19882">
        <ele>236</ele>
        <time>2020-12-24T19:47:19+01:00</time>
      </trkpt>
      <trkpt lat="43.60983" lon="1.19895">
        <ele>235</ele>
        <time>2020-12-24T19:47:22+01:00</time>
      </trkpt>
      <trkpt lat="43.60973" lon="1.19916">
        <ele>235</ele>
        <time>2020-12-24T19:47:30+01:00</time>
      </trkpt>
      <trkpt lat="43.60963" lon="1.19936">
        <ele>235</ele>
        <time>2020-12-24T19:47:57+01:00</time>
      </trkpt>
      <trkpt lat="43.60955" lon="1.19956">
        <ele>235</ele>
        <time>2020-12-24T19:48:08+01:00</time>
      </trkpt>
      <trkpt lat="43.60943" lon="1.19986">
        <ele>235</ele>
        <time>2020-12-24T19:48:34+01:00</time>
      </trkpt>
      <trkpt lat="43.60936" lon="1.20006">
        <ele>234</ele>
        <time>2020-12-24T19:48:46+01:00</time>
      </trkpt>
      <trkpt lat="43.6093" lon="1.20006">
        <ele>234</ele>
        <time>2020-12-24T19:48:50+01:00</time>
      </trkpt>
      <trkpt lat="43.60925" lon="1.20005">
        <ele>234</ele>
        <time>2020-12-24T19:48:53+01:00</time>
      </trkpt>
      <trkpt lat="43.60915" lon="1.19996">
        <ele>234</ele>
        <time>2020-12-24T19:49:00+01:00</time>
      </trkpt>
      <trkpt lat="43.60906" lon="1.19989">
        <ele>234</ele>
        <time>2020-12-24T19:49:21+01:00</time>
      </trkpt>
      <trkpt lat="43.60897" lon="1.19982">
        <ele>234</ele>
        <time>2020-12-24T19:49:26+01:00</time>
      </trkpt>
      <trkpt lat="43.60892" lon="1.19977">
        <ele>234</ele>
        <time>2020-12-24T19:49:30+01:00</time>
      </trkpt>
      <trkpt lat="43.60884" lon="1.19973">
        <ele>234</ele>
        <time>2020-12-24T19:49:37+01:00</time>
      </trkpt>
      <trkpt lat="43.60879" lon="1.1997">
        <ele>234</ele>
        <time>2020-12-24T19:49:41+01:00</time>
      </trkpt>
      <trkpt lat="43.60875" lon="1.19967">
        <ele>235</ele>
        <time>2020-12-24T19:49:47+01:00</time>
      </trkpt>
      <trkpt lat="43.60871" lon="1.19962">
        <ele>235</ele>
        <time>2020-12-24T19:49:51+01:00</time>
      </trkpt>
      <trkpt lat="43.60866" lon="1.19958">
        <ele>235</ele>
        <time>2020-12-24T19:49:56+01:00</time>
      </trkpt>
      <trkpt lat="43.60861" lon="1.19951">
        <ele>235</ele>
        <time>2020-12-24T19:50:03+01:00</time>
      </trkpt>
      <trkpt lat="43.60851" lon="1.19946">
        <ele>235</ele>
        <time>2020-12-24T19:50:11+01:00</time>
      </trkpt>
      <trkpt lat="43.60845" lon="1.19942">
        <ele>235</ele>
        <time>2020-12-24T19:50:16+01:00</time>
      </trkpt>
      <trkpt lat="43.60835" lon="1.19935">
        <ele>235</ele>
        <time>2020-12-24T19:50:26+01:00</time>
      </trkpt>
      <trkpt lat="43.6083" lon="1.1993">
        <ele>235</ele>
        <time>2020-12-24T19:50:31+01:00</time>
      </trkpt>
      <trkpt lat="43.60823" lon="1.19927">
        <ele>235</ele>
        <time>2020-12-24T19:50:36+01:00</time>
      </trkpt>
      <trkpt lat="43.60818" lon="1.19922">
        <ele>235</ele>
        <time>2020-12-24T19:50:40+01:00</time>
      </trkpt>
      <trkpt lat="43.60804" lon="1.1991">
        <ele>235</ele>
        <time>2020-12-24T19:50:56+01:00</time>
      </trkpt>
      <trkpt lat="43.60778" lon="1.19885">
        <ele>235</ele>
        <time>2020-12-24T19:51:21+01:00</time>
      </trkpt>
      <trkpt lat="43.6075" lon="1.19867">
        <ele>233</ele>
        <time>2020-12-24T19:51:46+01:00</time>
      </trkpt>
      <trkpt lat="43.60736" lon="1.19855">
        <ele>233</ele>
        <time>2020-12-24T19:51:59+01:00</time>
      </trkpt>
      <trkpt lat="43.60728" lon="1.19845">
        <ele>232</ele>
        <time>2020-12-24T19:52:07+01:00</time>
      </trkpt>
      <trkpt lat="43.60715" lon="1.19833">
        <ele>231</ele>
        <time>2020-12-24T19:52:19+01:00</time>
      </trkpt>
      <trkpt lat="43.60703" lon="1.19826">
        <ele>230</ele>
        <time>2020-12-24T19:52:31+01:00</time>
      </trkpt>
      <trkpt lat="43.60695" lon="1.19819">
        <ele>229</ele>
        <time>2020-12-24T19:52:37+01:00</time>
      </trkpt>
      <trkpt lat="43.60687" lon="1.1981">
        <ele>228</ele>
        <time>2020-12-24T19:52:45+01:00</time>
      </trkpt>
      <trkpt lat="43.60663" lon="1.19793">
        <ele>226</ele>
        <time>2020-12-24T19:53:09+01:00</time>
      </trkpt>
      <trkpt lat="43.60651" lon="1.19784">
        <ele>225</ele>
        <time>2020-12-24T19:53:21+01:00</time>
      </trkpt>
      <trkpt lat="43.6064" lon="1.19772">
        <ele>225</ele>
        <time>2020-12-24T19:53:31+01:00</time>
      </trkpt>
      <trkpt lat="43.60627" lon="1.19762">
        <ele>225</ele>
        <time>2020-12-24T19:53:42+01:00</time>
      </trkpt>
      <trkpt lat="43.6062" lon="1.19758">
        <ele>226</ele>
        <time>2020-12-24T19:53:57+01:00</time>
      </trkpt>
      <trkpt lat="43.60613" lon="1.19754">
        <ele>226</ele>
        <time>2020-12-24T19:53:59+01:00</time>
      </trkpt>
      <trkpt lat="43.60608" lon="1.1975">
        <ele>227</ele>
        <time>2020-12-24T19:54:01+01:00</time>
      </trkpt>
      <trkpt lat="43.60603" lon="1.19744">
        <ele>228</ele>
        <time>2020-12-24T19:54:07+01:00</time>
      </trkpt>
      <trkpt lat="43.60593" lon="1.19734">
        <ele>229</ele>
        <time>2020-12-24T19:54:19+01:00</time>
      </trkpt>
      <trkpt lat="43.60584" lon="1.19727">
        <ele>230</ele>
        <time>2020-12-24T19:54:25+01:00</time>
      </trkpt>
      <trkpt lat="43.60576" lon="1.19719">
        <ele>231</ele>
        <time>2020-12-24T19:54:35+01:00</time>
      </trkpt>
      <trkpt lat="43.60564" lon="1.1971">
        <ele>232</ele>
        <time>2020-12-24T19:54:51+01:00</time>
      </trkpt>
      <trkpt lat="43.60555" lon="1.19705">
        <ele>232</ele>
        <time>2020-12-24T19:54:59+01:00</time>
      </trkpt>
      <trkpt lat="43.60546" lon="1.19699">
        <ele>232</ele>
        <time>2020-12-24T19:55:01+01:00</time>
      </trkpt>
      <trkpt lat="43.60537" lon="1.19691">
        <ele>232</ele>
        <time>2020-12-24T19:55:10+01:00</time>
      </trkpt>
      <trkpt lat="43.60523" lon="1.19678">
        <ele>231</ele>
        <time>2020-12-24T19:55:26+01:00</time>
      </trkpt>
      <trkpt lat="43.60514" lon="1.19672">
        <ele>231</ele>
        <time>2020-12-24T19:55:33+01:00</time>
      </trkpt>
      <trkpt lat="43.605" lon="1.19658">
        <ele>230</ele>
        <time>2020-12-24T19:55:38+01:00</time>
      </trkpt>
      <trkpt lat="43.60507" lon="1.19641">
        <ele>231</ele>
        <time>2020-12-24T19:55:53+01:00</time>
      </trkpt>
      <trkpt lat="43.60511" lon="1.1963">
        <ele>231</ele>
        <time>2020-12-24T19:56:00+01:00</time>
      </trkpt>
      <trkpt lat="43.60515" lon="1.1962">
        <ele>232</ele>
        <time>2020-12-24T19:56:06+01:00</time>
      </trkpt>
      <trkpt lat="43.6052" lon="1.19605">
        <ele>233</ele>
        <time>2020-12-24T19:56:18+01:00</time>
      </trkpt>
      <trkpt lat="43.60526" lon="1.19592">
        <ele>234</ele>
        <time>2020-12-24T19:56:27+01:00</time>
      </trkpt>
      <trkpt lat="43.60532" lon="1.19581">
        <ele>234</ele>
        <time>2020-12-24T19:56:33+01:00</time>
      </trkpt>
      <trkpt lat="43.60537" lon="1.19563">
        <ele>234</ele>
        <time>2020-12-24T19:56:57+01:00</time>
      </trkpt>
      <trkpt lat="43.60545" lon="1.19548">
        <ele>235</ele>
        <time>2020-12-24T19:57:01+01:00</time>
      </trkpt>
      <trkpt lat="43.60549" lon="1.19538">
        <ele>235</ele>
        <time>2020-12-24T19:57:07+01:00</time>
      </trkpt>
      <trkpt lat="43.60556" lon="1.1952">
        <ele>236</ele>
        <time>2020-12-24T19:57:18+01:00</time>
      </trkpt>
      <trkpt lat="43.60565" lon="1.19501">
        <ele>236</ele>
        <time>2020-12-24T19:57:32+01:00</time>
      </trkpt>
      <trkpt lat="43.60569" lon="1.1949">
        <ele>236</ele>
        <time>2020-12-24T19:58:24+01:00</time>
      </trkpt>
      <trkpt lat="43.60574" lon="1.19483">
        <ele>237</ele>
        <time>2020-12-24T19:58:29+01:00</time>
      </trkpt>
      <trkpt lat="43.60577" lon="1.19475">
        <ele>237</ele>
        <time>2020-12-24T19:58:34+01:00</time>
      </trkpt>
      <trkpt lat="43.60581" lon="1.19468">
        <ele>237</ele>
        <time>2020-12-24T19:58:39+01:00</time>
      </trkpt>
      <trkpt lat="43.60584" lon="1.19462">
        <ele>237</ele>
        <time>2020-12-24T19:58:43+01:00</time>
      </trkpt>
      <trkpt lat="43.60589" lon="1.19455">
        <ele>237</ele>
        <time>2020-12-24T19:58:49+01:00</time>
      </trkpt>
      <trkpt lat="43.60596" lon="1.19438">
        <ele>237</ele>
        <time>2020-12-24T19:59:00+01:00</time>
      </trkpt>
      <trkpt lat="43.60601" lon="1.19423">
        <ele>237</ele>
        <time>2020-12-24T19:59:10+01:00</time>
      </trkpt>
      <trkpt lat="43.60611" lon="1.19401">
        <ele>237</ele>
        <time>2020-12-24T19:59:26+01:00</time>
      </trkpt>
      <trkpt lat="43.6062" lon="1.19384">
        <ele>237</ele>
        <time>2020-12-24T19:59:39+01:00</time>
      </trkpt>
      <trkpt lat="43.60628" lon="1.19361">
        <ele>237</ele>
        <time>2020-12-24T19:59:54+01:00</time>
      </trkpt>
      <trkpt lat="43.60633" lon="1.19349">
        <ele>237</ele>
        <time>2020-12-24T20:00:00+01:00</time>
      </trkpt>
      <trkpt lat="43.60646" lon="1.19325">
        <ele>237</ele>
        <time>2020-12-24T20:00:20+01:00</time>
      </trkpt>
      <trkpt lat="43.60655" lon="1.193">
        <ele>237</ele>
        <time>2020-12-24T20:00:32+01:00</time>
      </trkpt>
      <trkpt lat="43.60664" lon="1.19278">
        <ele>237</ele>
        <time>2020-12-24T20:00:39+01:00</time>
      </trkpt>
      <trkpt lat="43.60651" lon="1.19268">
        <ele>237</ele>
        <time>2020-12-24T20:00:53+01:00</time>
      </trkpt>
      <trkpt lat="43.60637" lon="1.19258">
        <ele>237</ele>
        <time>2020-12-24T20:01:02+01:00</time>
      </trkpt>
      <trkpt lat="43.60631" lon="1.19252">
        <ele>237</ele>
        <time>2020-12-24T20:01:11+01:00</time>
      </trkpt>
      <trkpt lat="43.60621" lon="1.19242">
        <ele>237</ele>
        <time>2020-12-24T20:01:18+01:00</time>
      </trkpt>
      <trkpt lat="43.60599" lon="1.19226">
        <ele>237</ele>
        <time>2020-12-24T20:01:42+01:00</time>
      </trkpt>
      <trkpt lat="43.60585" lon="1.19215">
        <ele>237</ele>
        <time>2020-12-24T20:01:56+01:00</time>
      </trkpt>
      <trkpt lat="43.60577" lon="1.19209">
        <ele>237</ele>
        <time>2020-12-24T20:01:59+01:00</time>
      </trkpt>
      <trkpt lat="43.6057" lon="1.19202">
        <ele>237</ele>
        <time>2020-12-24T20:02:06+01:00</time>
      </trkpt>
      <trkpt lat="43.60553" lon="1.19189">
        <ele>236</ele>
        <time>2020-12-24T20:02:24+01:00</time>
      </trkpt>
      <trkpt lat="43.60538" lon="1.19178">
        <ele>235</ele>
        <time>2020-12-24T20:02:36+01:00</time>
      </trkpt>
      <trkpt lat="43.60527" lon="1.19169">
        <ele>234</ele>
        <time>2020-12-24T20:02:45+01:00</time>
      </trkpt>
      <trkpt lat="43.60509" lon="1.19153">
        <ele>232</ele>
        <time>2020-12-24T20:03:03+01:00</time>
      </trkpt>
      <trkpt lat="43.60478" lon="1.19124">
        <ele>229</ele>
        <time>2020-12-24T20:03:33+01:00</time>
      </trkpt>
      <trkpt lat="43.60459" lon="1.19111">
        <ele>229</ele>
        <time>2020-12-24T20:03:50+01:00</time>
      </trkpt>
      <trkpt lat="43.60451" lon="1.19106">
        <ele>228</ele>
        <time>2020-12-24T20:03:56+01:00</time>
      </trkpt>
      <trkpt lat="43.60443" lon="1.19099">
        <ele>229</ele>
        <time>2020-12-24T20:04:03+01:00</time>
      </trkpt>
      <trkpt lat="43.60428" lon="1.19085">
        <ele>230</ele>
        <time>2020-12-24T20:04:21+01:00</time>
      </trkpt>
      <trkpt lat="43.60407" lon="1.19067">
        <ele>232</ele>
        <time>2020-12-24T20:04:47+01:00</time>
      </trkpt>
      <trkpt lat="43.60393" lon="1.19057">
        <ele>234</ele>
        <time>2020-12-24T20:04:55+01:00</time>
      </trkpt>
      <trkpt lat="43.60384" lon="1.19049">
        <ele>235</ele>
        <time>2020-12-24T20:05:04+01:00</time>
      </trkpt>
      <trkpt lat="43.60373" lon="1.19041">
        <ele>235</ele>
        <time>2020-12-24T20:05:11+01:00</time>
      </trkpt>
      <trkpt lat="43.6035" lon="1.19024">
        <ele>234</ele>
        <time>2020-12-24T20:05:35+01:00</time>
      </trkpt>
      <trkpt lat="43.60339" lon="1.19013">
        <ele>234</ele>
        <time>2020-12-24T20:05:45+01:00</time>
      </trkpt>
      <trkpt lat="43.60322" lon="1.19001">
        <ele>233</ele>
        <time>2020-12-24T20:06:02+01:00</time>
      </trkpt>
      <trkpt lat="43.60313" lon="1.18994">
        <ele>232</ele>
        <time>2020-12-24T20:06:06+01:00</time>
      </trkpt>
      <trkpt lat="43.60298" lon="1.18979">
        <ele>231</ele>
        <time>2020-12-24T20:06:25+01:00</time>
      </trkpt>
      <trkpt lat="43.60284" lon="1.18967">
        <ele>230</ele>
        <time>2020-12-24T20:06:38+01:00</time>
      </trkpt>
      <trkpt lat="43.60274" lon="1.1896">
        <ele>229</ele>
        <time>2020-12-24T20:06:48+01:00</time>
      </trkpt>
      <trkpt lat="43.60262" lon="1.18949">
        <ele>227</ele>
        <time>2020-12-24T20:06:57+01:00</time>
      </trkpt>
      <trkpt lat="43.60257" lon="1.18945">
        <ele>227</ele>
        <time>2020-12-24T20:07:01+01:00</time>
      </trkpt>
      <trkpt lat="43.60242" lon="1.18935">
        <ele>226</ele>
        <time>2020-12-24T20:07:22+01:00</time>
      </trkpt>
      <trkpt lat="43.60232" lon="1.18926">
        <ele>225</ele>
        <time>2020-12-24T20:07:31+01:00</time>
      </trkpt>
      <trkpt lat="43.60224" lon="1.18922">
        <ele>224</ele>
        <time>2020-12-24T20:07:36+01:00</time>
      </trkpt>
      <trkpt lat="43.60218" lon="1.18917">
        <ele>224</ele>
        <time>2020-12-24T20:07:44+01:00</time>
      </trkpt>
      <trkpt lat="43.60212" lon="1.18912">
        <ele>224</ele>
        <time>2020-12-24T20:07:47+01:00</time>
      </trkpt>
      <trkpt lat="43.60193" lon="1.18895">
        <ele>223</ele>
        <time>2020-12-24T20:08:06+01:00</time>
      </trkpt>
      <trkpt lat="43.60181" lon="1.18887">
        <ele>224</ele>
        <time>2020-12-24T20:08:25+01:00</time>
      </trkpt>
      <trkpt lat="43.6017" lon="1.18878">
        <ele>225</ele>
        <time>2020-12-24T20:08:31+01:00</time>
      </trkpt>
      <trkpt lat="43.60161" lon="1.18871">
        <ele>226</ele>
        <time>2020-12-24T20:08:33+01:00</time>
      </trkpt>
      <trkpt lat="43.60145" lon="1.18856">
        <ele>229</ele>
        <time>2020-12-24T20:08:54+01:00</time>
      </trkpt>
      <trkpt lat="43.60134" lon="1.18847">
        <ele>230</ele>
        <time>2020-12-24T20:09:01+01:00</time>
      </trkpt>
      <trkpt lat="43.60119" lon="1.18837">
        <ele>232</ele>
        <time>2020-12-24T20:09:15+01:00</time>
      </trkpt>
      <trkpt lat="43.60111" lon="1.18831">
        <ele>233</ele>
        <time>2020-12-24T20:09:28+01:00</time>
      </trkpt>
      <trkpt lat="43.60102" lon="1.18824">
        <ele>235</ele>
        <time>2020-12-24T20:09:31+01:00</time>
      </trkpt>
      <trkpt lat="43.60096" lon="1.18818">
        <ele>236</ele>
        <time>2020-12-24T20:09:38+01:00</time>
      </trkpt>
      <trkpt lat="43.60088" lon="1.18812">
        <ele>237</ele>
        <time>2020-12-24T20:09:46+01:00</time>
      </trkpt>
      <trkpt lat="43.6008" lon="1.18805">
        <ele>238</ele>
        <time>2020-12-24T20:09:52+01:00</time>
      </trkpt>
      <trkpt lat="43.6007" lon="1.18798">
        <ele>240</ele>
        <time>2020-12-24T20:10:02+01:00</time>
      </trkpt>
      <trkpt lat="43.60051" lon="1.18781">
        <ele>242</ele>
        <time>2020-12-24T20:10:24+01:00</time>
      </trkpt>
      <trkpt lat="43.60035" lon="1.18768">
        <ele>244</ele>
        <time>2020-12-24T20:10:36+01:00</time>
      </trkpt>
      <trkpt lat="43.60025" lon="1.18761">
        <ele>244</ele>
        <time>2020-12-24T20:10:44+01:00</time>
      </trkpt>
      <trkpt lat="43.60004" lon="1.18743">
        <ele>245</ele>
        <time>2020-12-24T20:11:06+01:00</time>
      </trkpt>
      <trkpt lat="43.59991" lon="1.18735">
        <ele>245</ele>
        <time>2020-12-24T20:11:15+01:00</time>
      </trkpt>
      <trkpt lat="43.59978" lon="1.18724">
        <ele>244</ele>
        <time>2020-12-24T20:11:28+01:00</time>
      </trkpt>
      <trkpt lat="43.59965" lon="1.18712">
        <ele>244</ele>
        <time>2020-12-24T20:11:40+01:00</time>
      </trkpt>
      <trkpt lat="43.5992" lon="1.18677">
        <ele>242</ele>
        <time>2020-12-24T20:12:25+01:00</time>
      </trkpt>
      <trkpt lat="43.59904" lon="1.18669">
        <ele>242</ele>
        <time>2020-12-24T20:12:36+01:00</time>
      </trkpt>
      <trkpt lat="43.59898" lon="1.18677">
        <ele>242</ele>
        <time>2020-12-24T20:12:43+01:00</time>
      </trkpt>
      <trkpt lat="43.59884" lon="1.18681">
        <ele>241</ele>
        <time>2020-12-24T20:12:54+01:00</time>
      </trkpt>
      <trkpt lat="43.59877" lon="1.18675">
        <ele>241</ele>
        <time>2020-12-24T20:13:01+01:00</time>
      </trkpt>
      <trkpt lat="43.59874" lon="1.18669">
        <ele>241</ele>
        <time>2020-12-24T20:13:05+01:00</time>
      </trkpt>
      <trkpt lat="43.59864" lon="1.1867">
        <ele>241</ele>
        <time>2020-12-24T20:13:28+01:00</time>
      </trkpt>
      <trkpt lat="43.59861" lon="1.18659">
        <ele>241</ele>
        <time>2020-12-24T20:13:33+01:00</time>
      </trkpt>
      <trkpt lat="43.59854" lon="1.18653">
        <ele>241</ele>
        <time>2020-12-24T20:13:37+01:00</time>
      </trkpt>
      <trkpt lat="43.59846" lon="1.18654">
        <ele>241</ele>
        <time>2020-12-24T20:13:41+01:00</time>
      </trkpt>
      <trkpt lat="43.59847" lon="1.18654">
        <ele>241</ele>
        <time>2020-12-24T20:13:48+01:00</time>
      </trkpt>
    </trkseg>
  </trk>
</gpx>